createdAt,value
2023-02-06T00:03:12.075Z,11.94
2023-02-06T00:04:56.923Z,12.00
2023-02-06T00:07:24.576Z,12.10
2023-02-06T00:09:08.844Z,12.48
2023-02-06T00:11:00.619Z,12.72
2023-02-06T00:12:56.930Z,12.68
2023-02-06T00:14:55.077Z,12.25
2023-02-06T00:16:10.063Z,11.89
2023-02-06T00:20:50.214Z,11.61
2023-02-06T00:22:46.840Z,11.68
2023-02-06T00:24:07.443Z,11.50
2023-02-06T00:26:10.072Z,11.74
2023-02-06T00:27:29.041Z,11.77
2023-02-06T00:30:35.818Z,11.61
2023-02-06T00:31:38.837Z,11.76
2023-02-06T00:32:42.619Z,11.61
2023-02-06T00:33:45.436Z,11.69
2023-02-06T00:34:49.011Z,11.56
2023-02-06T00:35:51.742Z,11.51
2023-02-06T00:36:55.329Z,11.82
2023-02-06T00:37:59.978Z,11.72
2023-02-06T00:39:03.504Z,11.95
2023-02-06T00:40:06.861Z,11.67
2023-02-06T00:41:10.344Z,11.28
2023-02-06T00:42:14.660Z,11.07
2023-02-06T00:43:18.298Z,11.12
2023-02-06T00:44:21.810Z,11.35
2023-02-06T00:45:25.284Z,11.06
2023-02-06T00:46:29.158Z,10.97
2023-02-06T00:47:33.161Z,11.09
2023-02-06T00:48:36.020Z,11.24
2023-02-06T00:49:39.589Z,11.22
2023-02-06T00:50:42.254Z,10.89
2023-02-06T00:51:45.688Z,10.95
2023-02-06T00:52:48.483Z,11.05
2023-02-06T00:53:52.037Z,11.07
2023-02-06T00:54:54.920Z,11.11
2023-02-06T00:55:58.488Z,11.18
2023-02-06T00:57:01.126Z,11.22
2023-02-06T00:58:05.083Z,11.24
2023-02-06T00:59:07.961Z,11.11
2023-02-06T01:00:12.937Z,11.27
2023-02-06T01:01:15.676Z,11.15
2023-02-06T01:02:20.710Z,11.31
2023-02-06T01:03:23.761Z,10.96
2023-02-06T01:04:27.760Z,10.92
2023-02-06T01:05:30.560Z,11.14
2023-02-06T01:06:34.474Z,11.13
2023-02-06T01:07:38.732Z,11.26
2023-02-06T01:08:42.359Z,11.40
2023-02-06T01:09:45.010Z,11.26
2023-02-06T01:10:48.524Z,11.45
2023-02-06T01:11:50.980Z,11.45
2023-02-06T01:12:54.533Z,11.51
2023-02-06T01:13:57.219Z,11.72
2023-02-06T01:15:01.590Z,11.68
2023-02-06T01:16:07.150Z,11.69
2023-02-06T01:17:11.227Z,11.86
2023-02-06T01:18:15.293Z,11.69
2023-02-06T01:19:19.153Z,11.72
2023-02-06T01:20:21.968Z,11.67
2023-02-06T01:21:26.978Z,11.84
2023-02-06T01:22:29.656Z,11.72
2023-02-06T01:23:33.549Z,11.98
2023-02-06T01:24:37.107Z,12.08
2023-02-06T01:25:41.049Z,11.93
2023-02-06T01:26:43.809Z,12.00
2023-02-06T01:27:47.494Z,12.01
2023-02-06T01:28:50.618Z,11.91
2023-02-06T01:29:54.318Z,11.81
2023-02-06T01:30:57.001Z,11.67
2023-02-06T01:32:00.959Z,11.53
2023-02-06T01:33:03.834Z,11.30
2023-02-06T01:34:09.723Z,11.37
2023-02-06T01:35:12.909Z,11.13
2023-02-06T01:36:17.625Z,11.24
2023-02-06T01:37:20.572Z,11.08
2023-02-06T01:38:24.419Z,11.20
2023-02-06T01:39:27.374Z,11.40
2023-02-06T01:40:31.150Z,11.61
2023-02-06T01:41:34.000Z,11.85
2023-02-06T01:42:38.716Z,11.89
2023-02-06T01:43:43.665Z,11.84
2023-02-06T01:44:47.615Z,11.87
2023-02-06T01:45:51.519Z,11.73
2023-02-06T01:46:57.445Z,11.63
2023-02-06T01:48:03.512Z,11.71
2023-02-06T01:49:10.086Z,11.86
2023-02-06T01:50:12.703Z,11.75
2023-02-06T01:51:20.008Z,11.90
2023-02-06T01:52:24.745Z,11.76
2023-02-06T01:53:29.943Z,11.99
2023-02-06T01:54:34.126Z,11.60
2023-02-06T01:55:39.738Z,11.60
2023-02-06T01:56:47.144Z,11.57
2023-02-06T01:57:50.331Z,11.69
2023-02-06T01:58:56.971Z,11.65
2023-02-06T02:00:03.152Z,11.59
2023-02-06T02:01:07.781Z,11.71
2023-02-06T02:02:10.881Z,11.72
2023-02-06T02:03:15.224Z,11.67
2023-02-06T02:04:21.616Z,11.57
2023-02-06T02:05:25.962Z,11.78
2023-02-06T02:06:30.055Z,11.84
2023-02-06T02:07:35.774Z,11.69
2023-02-06T02:08:40.951Z,11.55
2023-02-06T02:09:43.825Z,11.52
2023-02-06T02:10:47.773Z,11.53
2023-02-06T02:11:50.429Z,11.61
2023-02-06T02:12:54.039Z,11.50
2023-02-06T02:13:57.639Z,11.60
2023-02-06T02:15:01.825Z,11.84
2023-02-06T02:16:12.203Z,11.85
2023-02-06T02:17:29.531Z,11.88
2023-02-06T02:18:46.914Z,11.75
2023-02-06T02:20:22.163Z,12.00
2023-02-06T02:22:01.308Z,11.91
2023-02-06T02:23:16.720Z,11.82
2023-02-06T02:24:24.508Z,11.87
2023-02-06T02:26:00.478Z,11.75
2023-02-06T02:27:31.165Z,11.72
2023-02-06T02:29:07.699Z,11.66
2023-02-06T02:30:58.730Z,11.30
2023-02-06T02:32:43.531Z,11.22
2023-02-06T02:34:19.696Z,11.21
2023-02-06T02:35:43.038Z,11.41
2023-02-06T02:36:51.888Z,11.32
2023-02-06T02:38:05.236Z,11.31
2023-02-06T02:39:15.077Z,11.23
2023-02-06T02:40:27.245Z,11.20
2023-02-06T02:41:35.836Z,10.85
2023-02-06T02:42:49.176Z,11.01
2023-02-06T02:43:59.875Z,11.00
2023-02-06T02:45:11.451Z,10.78
2023-02-06T02:46:22.014Z,10.82
2023-02-06T02:47:30.885Z,10.86
2023-02-06T02:48:40.028Z,10.76
2023-02-06T02:49:45.343Z,10.73
2023-02-06T02:50:51.043Z,10.70
2023-02-06T02:51:54.051Z,10.70
2023-02-06T02:52:59.359Z,10.71
2023-02-06T02:54:02.968Z,10.66
2023-02-06T02:55:16.067Z,10.68
2023-02-06T02:56:21.759Z,10.73
2023-02-06T02:57:29.294Z,10.72
2023-02-06T02:58:35.698Z,10.81
2023-02-06T02:59:43.905Z,10.87
2023-02-06T03:00:50.639Z,10.88
2023-02-06T03:01:57.861Z,10.91
2023-02-06T03:03:01.666Z,10.98
2023-02-06T03:04:09.459Z,10.84
2023-02-06T03:05:16.242Z,10.89
2023-02-06T03:06:36.123Z,10.93
2023-02-06T03:07:45.871Z,10.88
2023-02-06T03:08:57.297Z,10.85
2023-02-06T03:10:06.198Z,10.88
2023-02-06T03:11:14.643Z,10.92
2023-02-06T03:12:23.835Z,10.80
2023-02-06T03:13:33.495Z,10.81
2023-02-06T03:14:46.572Z,10.82
2023-02-06T03:15:56.309Z,10.90
2023-02-06T03:17:04.738Z,10.81
2023-02-06T03:18:12.908Z,10.89
2023-02-06T03:19:19.727Z,10.86
2023-02-06T03:20:25.075Z,10.81
2023-02-06T03:21:31.865Z,10.91
2023-02-06T03:22:38.013Z,11.10
2023-02-06T03:23:43.194Z,11.07
2023-02-06T03:24:47.383Z,11.03
2023-02-06T03:25:55.235Z,10.91
2023-02-06T03:27:02.968Z,11.00
2023-02-06T03:28:08.065Z,11.04
2023-02-06T03:29:17.609Z,11.09
2023-02-06T03:30:21.958Z,11.01
2023-02-06T03:31:30.785Z,11.18
2023-02-06T03:32:39.734Z,11.02
2023-02-06T03:33:48.036Z,10.92
2023-02-06T03:34:58.236Z,10.91
2023-02-06T03:36:01.253Z,10.87
2023-02-06T03:37:06.710Z,10.89
2023-02-06T03:38:10.187Z,10.91
2023-02-06T03:39:14.471Z,10.73
2023-02-06T03:40:18.425Z,10.66
2023-02-06T03:41:27.193Z,10.51
2023-02-06T03:42:31.413Z,10.43
2023-02-06T03:43:35.810Z,10.41
2023-02-06T03:44:44.637Z,10.51
2023-02-06T03:45:52.140Z,10.47
2023-02-06T03:46:56.839Z,10.47
2023-02-06T03:48:04.913Z,10.45
2023-02-06T03:49:11.452Z,10.40
2023-02-06T03:50:16.492Z,10.37
2023-02-06T03:51:24.716Z,10.37
2023-02-06T03:52:36.951Z,10.34
2023-02-06T03:53:41.320Z,10.39
2023-02-06T03:54:49.868Z,10.39
2023-02-06T03:55:56.841Z,10.31
2023-02-06T03:57:03.150Z,10.26
2023-02-06T03:58:09.923Z,10.22
2023-02-06T03:59:14.365Z,10.18
2023-02-06T04:00:17.327Z,10.25
2023-02-06T04:01:22.580Z,10.11
2023-02-06T04:02:26.890Z,10.15
2023-02-06T04:03:31.466Z,10.08
2023-02-06T04:04:38.062Z,10.11
2023-02-06T04:05:42.018Z,10.06
2023-02-06T04:06:45.080Z,10.09
2023-02-06T04:07:50.416Z,10.21
2023-02-06T04:08:53.784Z,10.32
2023-02-06T04:09:57.515Z,10.27
2023-02-06T04:11:00.242Z,10.05
2023-02-06T04:12:04.044Z,10.06
2023-02-06T04:13:06.828Z,10.02
2023-02-06T04:14:10.773Z,9.97
2023-02-06T04:15:13.222Z,10.06
2023-02-06T04:16:16.901Z,10.03
2023-02-06T04:17:38.508Z,9.96
2023-02-06T04:18:43.752Z,10.06
2023-02-06T04:19:46.414Z,9.94
2023-02-06T04:20:51.887Z,9.96
2023-02-06T04:21:54.501Z,9.99
2023-02-06T04:23:00.066Z,10.05
2023-02-06T04:24:02.550Z,10.07
2023-02-06T04:25:06.668Z,10.11
2023-02-06T04:26:09.788Z,10.16
2023-02-06T04:27:15.644Z,10.29
2023-02-06T04:28:18.790Z,10.22
2023-02-06T04:29:22.467Z,10.30
2023-02-06T04:30:25.267Z,10.38
2023-02-06T04:31:29.269Z,10.49
2023-02-06T04:32:31.831Z,10.43
2023-02-06T04:33:35.452Z,10.47
2023-02-06T04:34:38.937Z,10.50
2023-02-06T04:35:42.885Z,10.48
2023-02-06T04:36:46.764Z,10.49
2023-02-06T04:37:50.005Z,10.49
2023-02-06T04:38:55.267Z,10.53
2023-02-06T04:39:58.020Z,10.62
2023-02-06T04:41:04.263Z,10.66
2023-02-06T04:42:07.311Z,10.74
2023-02-06T04:43:11.006Z,10.66
2023-02-06T04:44:13.362Z,10.71
2023-02-06T04:45:17.146Z,10.74
2023-02-06T04:46:19.755Z,10.65
2023-02-06T04:47:23.594Z,10.67
2023-02-06T04:48:26.640Z,10.76
2023-02-06T04:49:30.549Z,10.67
2023-02-06T04:50:34.431Z,10.66
2023-02-06T04:51:38.506Z,10.58
2023-02-06T04:52:41.224Z,10.47
2023-02-06T04:53:45.144Z,10.44
2023-02-06T04:54:49.463Z,10.44
2023-02-06T04:55:52.914Z,10.34
2023-02-06T04:56:55.721Z,10.40
2023-02-06T04:57:59.284Z,10.26
2023-02-06T04:59:01.829Z,10.14
2023-02-06T05:00:06.721Z,10.01
2023-02-06T05:01:09.179Z,9.91
2023-02-06T05:02:13.229Z,9.88
2023-02-06T05:03:15.866Z,9.80
2023-02-06T05:04:19.687Z,9.75
2023-02-06T05:05:22.322Z,9.62
2023-02-06T05:06:26.029Z,9.56
2023-02-06T05:07:28.865Z,9.52
2023-02-06T05:08:32.704Z,9.59
2023-02-06T05:09:35.361Z,9.54
2023-02-06T05:10:40.505Z,9.44
2023-02-06T05:11:43.257Z,9.38
2023-02-06T05:12:47.453Z,9.40
2023-02-06T05:13:50.051Z,9.45
2023-02-06T05:14:53.799Z,9.43
2023-02-06T05:15:58.287Z,9.43
2023-02-06T05:17:02.586Z,9.43
2023-02-06T05:18:05.733Z,9.40
2023-02-06T05:19:09.845Z,9.37
2023-02-06T05:20:12.586Z,9.34
2023-02-06T05:21:16.525Z,9.38
2023-02-06T05:22:19.047Z,9.36
2023-02-06T05:23:22.841Z,9.34
2023-02-06T05:24:25.239Z,9.23
2023-02-06T05:25:29.098Z,9.21
2023-02-06T05:26:33.402Z,9.25
2023-02-06T05:27:37.202Z,9.30
2023-02-06T05:28:39.870Z,9.31
2023-02-06T05:29:43.878Z,9.33
2023-02-06T05:30:46.793Z,9.28
2023-02-06T05:31:50.537Z,9.36
2023-02-06T05:32:53.208Z,9.39
2023-02-06T05:33:56.902Z,9.34
2023-02-06T05:34:59.557Z,9.35
2023-02-06T05:36:04.101Z,9.35
2023-02-06T05:37:06.683Z,9.34
2023-02-06T05:38:10.738Z,9.32
2023-02-06T05:39:13.962Z,9.31
2023-02-06T05:40:17.848Z,9.28
2023-02-06T05:41:20.536Z,9.28
2023-02-06T05:42:25.777Z,9.24
2023-02-06T05:43:28.952Z,9.18
2023-02-06T05:44:32.606Z,9.28
2023-02-06T05:45:36.199Z,9.24
2023-02-06T05:46:40.081Z,9.23
2023-02-06T05:47:43.011Z,9.25
2023-02-06T05:48:46.718Z,9.15
2023-02-06T05:49:49.264Z,9.17
2023-02-06T05:50:53.055Z,9.12
2023-02-06T05:51:55.491Z,9.13
2023-02-06T05:52:59.220Z,9.11
2023-02-06T05:54:02.015Z,9.07
2023-02-06T05:55:06.559Z,9.10
2023-02-06T05:56:09.152Z,9.08
2023-02-06T05:57:12.837Z,9.01
2023-02-06T05:58:17.392Z,9.07
2023-02-06T05:59:21.480Z,9.07
2023-02-06T06:00:24.251Z,9.12
2023-02-06T06:01:29.346Z,9.11
2023-02-06T06:02:31.821Z,9.16
2023-02-06T06:03:38.616Z,9.08
2023-02-06T06:04:42.332Z,9.08
2023-02-06T06:05:45.688Z,9.10
2023-02-06T06:06:49.483Z,9.07
2023-02-06T06:07:52.347Z,9.08
2023-02-06T06:08:55.857Z,9.05
2023-02-06T06:09:59.497Z,9.11
2023-02-06T06:11:03.589Z,9.10
2023-02-06T06:12:06.639Z,9.15
2023-02-06T06:13:10.391Z,9.19
2023-02-06T06:14:14.723Z,9.12
2023-02-06T06:15:18.499Z,9.15
2023-02-06T06:16:20.983Z,9.03
2023-02-06T06:17:25.028Z,9.02
2023-02-06T06:18:27.738Z,8.99
2023-02-06T06:19:31.292Z,8.96
2023-02-06T06:20:33.829Z,8.97
2023-02-06T06:21:37.860Z,8.97
2023-02-06T06:22:40.546Z,8.91
2023-02-06T06:23:44.139Z,8.94
2023-02-06T06:24:46.746Z,9.03
2023-02-06T06:25:50.553Z,8.99
2023-02-06T06:26:53.277Z,9.03
2023-02-06T06:27:56.813Z,8.96
2023-02-06T06:28:59.358Z,8.88
2023-02-06T06:30:04.850Z,8.89
2023-02-06T06:31:12.142Z,8.88
2023-02-06T06:32:16.110Z,8.87
2023-02-06T06:33:19.276Z,8.96
2023-02-06T06:34:23.021Z,8.91
2023-02-06T06:35:26.208Z,8.93
2023-02-06T06:36:30.078Z,8.96
2023-02-06T06:37:32.781Z,8.93
2023-02-06T06:38:36.871Z,8.96
2023-02-06T06:39:40.003Z,8.87
2023-02-06T06:40:43.959Z,8.89
2023-02-06T06:41:46.591Z,9.01
2023-02-06T06:42:50.554Z,8.96
2023-02-06T06:43:56.268Z,8.90
2023-02-06T06:45:00.054Z,8.84
2023-02-06T06:46:05.399Z,8.77
2023-02-06T06:47:10.761Z,8.80
2023-02-06T06:48:13.447Z,8.82
2023-02-06T06:49:16.916Z,8.81
2023-02-06T06:50:19.446Z,8.81
2023-02-06T06:51:23.033Z,8.86
2023-02-06T06:52:25.895Z,8.85
2023-02-06T06:53:29.812Z,8.87
2023-02-06T06:54:33.079Z,8.85
2023-02-06T06:55:36.898Z,8.88
2023-02-06T06:56:39.677Z,8.85
2023-02-06T06:57:43.753Z,8.90
2023-02-06T06:58:46.489Z,8.88
2023-02-06T06:59:50.107Z,8.87
2023-02-06T07:00:53.979Z,8.88
2023-02-06T07:01:59.239Z,8.91
2023-02-06T07:03:01.827Z,8.81
2023-02-06T07:04:05.729Z,8.89
2023-02-06T07:05:08.618Z,8.88
2023-02-06T07:06:13.164Z,8.82
2023-02-06T07:07:15.731Z,8.92
2023-02-06T07:08:19.743Z,8.86
2023-02-06T07:09:23.299Z,8.93
2023-02-06T07:10:26.932Z,8.84
2023-02-06T07:11:30.876Z,8.79
2023-02-06T07:12:33.745Z,8.85
2023-02-06T07:13:37.460Z,8.85
2023-02-06T07:14:40.656Z,8.84
2023-02-06T07:15:44.670Z,8.79
2023-02-06T07:16:47.266Z,8.74
2023-02-06T07:17:52.941Z,8.70
2023-02-06T07:18:55.885Z,8.75
2023-02-06T07:19:59.575Z,8.72
2023-02-06T07:21:03.604Z,8.78
2023-02-06T07:22:06.179Z,8.75
2023-02-06T07:23:09.900Z,8.75
2023-02-06T07:24:14.092Z,8.76
2023-02-06T07:25:20.275Z,8.75
2023-02-06T07:26:23.871Z,8.71
2023-02-06T07:27:27.855Z,8.75
2023-02-06T07:28:31.210Z,8.70
2023-02-06T07:29:35.000Z,8.73
2023-02-06T07:30:39.051Z,8.72
2023-02-06T07:31:42.910Z,8.70
2023-02-06T07:32:45.674Z,8.74
2023-02-06T07:33:50.698Z,8.70
2023-02-06T07:34:53.121Z,8.78
2023-02-06T07:35:56.895Z,8.86
2023-02-06T07:37:01.249Z,8.89
2023-02-06T07:38:04.741Z,8.87
2023-02-06T07:39:07.087Z,8.98
2023-02-06T07:40:11.856Z,9.02
2023-02-06T07:41:18.017Z,9.18
2023-02-06T07:42:21.572Z,9.09
2023-02-06T07:43:25.343Z,9.11
2023-02-06T07:44:28.034Z,9.02
2023-02-06T07:45:31.625Z,9.14
2023-02-06T07:46:35.478Z,9.12
2023-02-06T07:47:38.980Z,9.23
2023-02-06T07:48:42.836Z,9.21
2023-02-06T07:49:48.168Z,9.10
2023-02-06T07:50:50.482Z,8.92
2023-02-06T07:51:53.927Z,9.01
2023-02-06T07:52:57.431Z,8.92
2023-02-06T07:54:00.963Z,8.99
2023-02-06T07:55:05.039Z,8.90
2023-02-06T07:56:12.372Z,8.98
2023-02-06T07:57:16.606Z,8.97
2023-02-06T07:58:21.099Z,9.08
2023-02-06T07:59:23.848Z,9.15
2023-02-06T08:00:27.186Z,9.08
2023-02-06T08:01:30.925Z,9.20
2023-02-06T08:02:33.767Z,9.07
2023-02-06T08:03:37.749Z,9.12
2023-02-06T08:04:41.650Z,9.12
2023-02-06T08:05:46.040Z,9.06
2023-02-06T08:06:49.604Z,9.08
2023-02-06T08:07:53.366Z,9.03
2023-02-06T08:08:57.938Z,9.01
2023-02-06T08:10:00.330Z,9.12
2023-02-06T08:11:07.394Z,8.97
2023-02-06T08:12:12.054Z,9.02
2023-02-06T08:13:15.922Z,9.12
2023-02-06T08:14:18.464Z,9.07
2023-02-06T08:15:21.994Z,9.08
2023-02-06T08:16:25.416Z,9.05
2023-02-06T08:17:29.371Z,9.07
2023-02-06T08:18:31.869Z,9.13
2023-02-06T08:19:35.543Z,9.14
2023-02-06T08:20:39.597Z,9.33
2023-02-06T08:21:44.253Z,9.31
2023-02-06T08:22:47.922Z,9.37
2023-02-06T08:23:55.812Z,9.20
2023-02-06T08:24:59.608Z,9.33
2023-02-06T08:26:03.405Z,9.52
2023-02-06T08:27:08.166Z,9.59
2023-02-06T08:28:15.046Z,9.80
2023-02-06T08:29:18.953Z,9.76
2023-02-06T08:30:22.799Z,9.67
2023-02-06T08:31:28.606Z,9.66
2023-02-06T08:32:34.786Z,9.52
2023-02-06T08:33:38.877Z,9.34
2023-02-06T08:34:42.022Z,9.44
2023-02-06T08:35:45.624Z,9.42
2023-02-06T08:36:50.693Z,9.51
2023-02-06T08:37:53.178Z,9.51
2023-02-06T08:38:57.500Z,9.59
2023-02-06T08:40:01.521Z,9.66
2023-02-06T08:41:05.656Z,9.64
2023-02-06T08:42:09.428Z,9.51
2023-02-06T08:43:12.691Z,9.53
2023-02-06T08:44:18.128Z,9.71
2023-02-06T08:45:21.867Z,9.73
2023-02-06T08:46:26.879Z,9.59
2023-02-06T08:47:31.405Z,9.72
2023-02-06T08:48:34.359Z,9.78
2023-02-06T08:49:37.949Z,9.63
2023-02-06T08:50:41.897Z,9.73
2023-02-06T08:51:45.920Z,9.88
2023-02-06T08:52:51.048Z,10.16
2023-02-06T08:53:55.907Z,10.21
2023-02-06T08:54:59.583Z,10.35
2023-02-06T08:56:03.971Z,10.38
2023-02-06T08:57:07.908Z,10.77
2023-02-06T08:58:10.604Z,11.14
2023-02-06T08:59:15.477Z,11.18
2023-02-06T09:00:20.837Z,11.22
2023-02-06T09:01:24.421Z,11.13
2023-02-06T09:02:28.222Z,11.29
2023-02-06T09:03:31.197Z,11.05
2023-02-06T09:04:37.511Z,11.47
2023-02-06T09:05:41.106Z,11.26
2023-02-06T09:06:46.624Z,10.97
2023-02-06T09:07:51.972Z,10.76
2023-02-06T09:08:57.235Z,10.67
2023-02-06T09:10:01.163Z,10.71
2023-02-06T09:11:08.302Z,10.37
2023-02-06T09:12:12.269Z,10.30
2023-02-06T09:13:15.533Z,10.32
2023-02-06T09:14:20.652Z,10.33
2023-02-06T09:15:24.801Z,10.12
2023-02-06T09:16:29.919Z,10.19
2023-02-06T09:17:34.359Z,10.30
2023-02-06T09:18:38.210Z,10.23
2023-02-06T09:19:43.262Z,10.23
2023-02-06T09:20:49.871Z,10.77
2023-02-06T09:21:53.442Z,10.85
2023-02-06T09:22:58.739Z,11.02
2023-02-06T09:24:04.880Z,10.94
2023-02-06T09:25:09.256Z,10.69
2023-02-06T09:26:13.116Z,10.28
2023-02-06T09:27:17.127Z,10.09
2023-02-06T09:28:19.582Z,9.98
2023-02-06T09:29:23.445Z,9.76
2023-02-06T09:30:27.124Z,9.74
2023-02-06T09:31:32.089Z,9.69
2023-02-06T09:32:35.997Z,9.62
2023-02-06T09:33:40.870Z,9.43
2023-02-06T09:34:44.615Z,9.56
2023-02-06T09:35:47.421Z,9.43
2023-02-06T09:36:51.318Z,9.60
2023-02-06T09:37:54.114Z,9.73
2023-02-06T09:38:59.720Z,9.75
2023-02-06T09:40:03.645Z,9.59
2023-02-06T09:41:14.451Z,9.80
2023-02-06T09:42:23.470Z,9.91
2023-02-06T09:43:27.946Z,9.70
2023-02-06T09:44:34.636Z,9.63
2023-02-06T09:45:38.481Z,9.52
2023-02-06T09:46:47.483Z,9.73
2023-02-06T09:47:55.284Z,9.59
2023-02-06T09:49:01.742Z,9.67
2023-02-06T09:50:09.428Z,9.69
2023-02-06T09:51:19.956Z,9.82
2023-02-06T09:52:39.324Z,9.93
2023-02-06T09:53:54.024Z,9.73
2023-02-06T09:55:09.411Z,9.82
2023-02-06T09:56:20.342Z,9.58
2023-02-06T09:57:36.357Z,9.65
2023-02-06T09:58:45.848Z,9.61
2023-02-06T09:59:56.504Z,9.48
2023-02-06T10:01:04.653Z,9.39
2023-02-06T10:02:26.512Z,9.43
2023-02-06T10:03:53.712Z,9.21
2023-02-06T10:05:03.109Z,9.12
2023-02-06T10:06:19.314Z,9.14
2023-02-06T10:07:33.644Z,9.11
2023-02-06T10:08:41.475Z,9.19
2023-02-06T10:09:52.130Z,9.04
2023-02-06T10:10:59.790Z,9.21
2023-02-06T10:12:11.129Z,9.35
2023-02-06T10:13:19.179Z,9.30
2023-02-06T10:14:32.736Z,9.03
2023-02-06T10:15:41.954Z,9.09
2023-02-06T10:16:50.240Z,9.06
2023-02-06T10:17:57.224Z,8.97
2023-02-06T10:19:05.613Z,9.01
2023-02-06T10:20:15.451Z,9.04
2023-02-06T10:21:30.346Z,9.02
2023-02-06T10:22:39.358Z,9.02
2023-02-06T10:23:48.180Z,8.94
2023-02-06T10:25:01.938Z,8.87
2023-02-06T10:26:17.272Z,8.96
2023-02-06T10:27:21.023Z,8.99
2023-02-06T10:28:27.072Z,9.01
2023-02-06T10:29:32.729Z,8.95
2023-02-06T10:30:50.803Z,8.74
2023-02-06T10:32:05.493Z,8.87
2023-02-06T10:33:25.384Z,8.99
2023-02-06T10:34:45.605Z,9.19
2023-02-06T10:36:00.764Z,9.23
2023-02-06T10:37:20.448Z,9.18
2023-02-06T10:38:38.995Z,9.11
2023-02-06T10:40:16.029Z,9.18
2023-02-06T10:41:30.618Z,9.25
2023-02-06T10:42:46.970Z,9.28
2023-02-06T10:43:54.480Z,9.11
2023-02-06T10:45:18.628Z,9.15
2023-02-06T10:46:40.072Z,9.22
2023-02-06T10:47:50.524Z,9.17
2023-02-06T10:49:01.381Z,9.00
2023-02-06T10:50:16.434Z,9.00
2023-02-06T10:51:24.879Z,8.90
2023-02-06T10:52:32.832Z,9.12
2023-02-06T10:53:38.215Z,9.28
2023-02-06T10:54:49.837Z,9.81
2023-02-06T10:55:57.487Z,9.84
2023-02-06T10:57:03.650Z,9.70
2023-02-06T10:58:16.352Z,9.56
2023-02-06T10:59:28.298Z,9.35
2023-02-06T11:00:31.992Z,9.05
2023-02-06T11:01:39.578Z,9.17
2023-02-06T11:02:58.171Z,9.13
2023-02-06T11:04:16.940Z,9.13
2023-02-06T11:05:24.382Z,9.13
2023-02-06T11:06:30.443Z,9.12
2023-02-06T11:07:39.554Z,8.76
2023-02-06T11:08:46.602Z,8.68
2023-02-06T11:09:50.191Z,8.68
2023-02-06T11:10:54.016Z,8.85
2023-02-06T11:11:58.813Z,8.69
2023-02-06T11:13:07.708Z,8.70
2023-02-06T11:14:18.383Z,8.78
2023-02-06T11:15:32.617Z,8.70
2023-02-06T11:16:37.706Z,8.92
2023-02-06T11:17:40.747Z,8.78
2023-02-06T11:18:47.456Z,9.02
2023-02-06T11:19:54.778Z,9.15
2023-02-06T11:20:59.231Z,9.34
2023-02-06T11:22:15.232Z,9.20
2023-02-06T11:23:21.524Z,9.31
2023-02-06T11:24:26.403Z,9.25
2023-02-06T11:25:33.841Z,9.23
2023-02-06T11:26:42.542Z,9.07
2023-02-06T11:27:46.627Z,8.90
2023-02-06T11:28:54.669Z,8.92
2023-02-06T11:30:05.030Z,8.79
2023-02-06T11:31:10.414Z,8.40
2023-02-06T11:32:31.236Z,8.47
2023-02-06T11:33:42.386Z,8.55
2023-02-06T11:34:55.049Z,8.38
2023-02-06T11:36:00.768Z,8.47
2023-02-06T11:37:06.256Z,8.20
2023-02-06T11:38:17.030Z,8.35
2023-02-06T11:39:27.816Z,8.26
2023-02-06T11:40:31.856Z,8.34
2023-02-06T11:41:35.782Z,8.28
2023-02-06T11:42:38.863Z,8.48
2023-02-06T11:43:51.040Z,8.45
2023-02-06T11:44:56.479Z,8.44
2023-02-06T11:46:25.980Z,8.30
2023-02-06T11:47:37.393Z,8.45
2023-02-06T11:48:42.847Z,8.58
2023-02-06T11:49:46.620Z,8.70
2023-02-06T11:50:55.507Z,8.90
2023-02-06T11:52:01.120Z,8.72
2023-02-06T11:53:11.792Z,8.36
2023-02-06T11:54:22.547Z,8.19
2023-02-06T11:55:28.450Z,8.14
2023-02-06T11:56:33.368Z,8.01
2023-02-06T11:57:38.425Z,8.00
2023-02-06T11:58:42.787Z,7.64
2023-02-06T11:59:52.639Z,7.45
2023-02-06T12:01:09.895Z,7.27
2023-02-06T12:02:28.109Z,7.32
2023-02-06T12:03:35.903Z,7.50
2023-02-06T12:04:42.752Z,7.83
2023-02-06T12:05:45.855Z,7.92
2023-02-06T12:06:49.815Z,7.72
2023-02-06T12:08:00.626Z,7.67
2023-02-06T12:09:10.678Z,7.81
2023-02-06T12:10:16.419Z,7.84
2023-02-06T12:11:25.019Z,7.85
2023-02-06T12:12:32.058Z,7.86
2023-02-06T12:13:41.304Z,8.03
2023-02-06T12:14:50.958Z,8.24
2023-02-06T12:15:58.191Z,9.35
2023-02-06T12:17:07.224Z,10.53
2023-02-06T12:18:15.781Z,10.88
2023-02-06T12:19:27.091Z,10.95
2023-02-06T12:20:35.218Z,11.27
2023-02-06T12:21:44.425Z,11.04
2023-02-06T12:22:53.806Z,11.43
2023-02-06T12:24:01.054Z,11.30
2023-02-06T12:25:05.760Z,11.28
2023-02-06T12:26:14.462Z,10.56
2023-02-06T12:27:22.953Z,10.58
2023-02-06T12:28:30.525Z,10.57
2023-02-06T12:29:38.024Z,10.75
2023-02-06T12:30:47.136Z,10.66
2023-02-06T12:31:58.427Z,10.91
2023-02-06T12:33:11.350Z,11.04
2023-02-06T12:34:18.713Z,10.76
2023-02-06T12:35:29.488Z,10.66
2023-02-06T12:36:39.053Z,10.34
2023-02-06T12:37:48.127Z,10.34
2023-02-06T12:38:57.269Z,9.79
2023-02-06T12:40:01.138Z,9.78
2023-02-06T12:41:40.681Z,9.93
2023-02-06T12:42:48.934Z,10.08
2023-02-06T12:43:58.304Z,10.18
2023-02-06T12:45:08.136Z,9.86
2023-02-06T12:46:18.447Z,9.91
2023-02-06T12:47:28.743Z,9.69
2023-02-06T12:48:41.952Z,9.72
2023-02-06T12:49:56.507Z,9.80
2023-02-06T12:51:10.346Z,9.65
2023-02-06T12:52:17.767Z,9.97
2023-02-06T12:53:27.932Z,10.08
2023-02-06T12:54:34.540Z,10.09
2023-02-06T12:55:43.456Z,10.26
2023-02-06T12:56:52.418Z,9.92
2023-02-06T12:57:57.890Z,10.08
2023-02-06T12:59:19.713Z,10.06
2023-02-06T13:00:46.025Z,10.07
2023-02-06T13:01:57.084Z,9.79
2023-02-06T13:03:27.282Z,9.68
2023-02-06T13:04:34.555Z,9.90
2023-02-06T13:05:41.929Z,9.88
2023-02-06T13:06:53.457Z,9.79
2023-02-06T13:08:03.414Z,9.71
2023-02-06T13:09:09.624Z,9.67
2023-02-06T13:10:21.277Z,9.67
2023-02-06T13:11:30.355Z,9.75
2023-02-06T13:12:35.390Z,9.70
2023-02-06T13:13:41.824Z,9.61
2023-02-06T13:14:50.370Z,9.79
2023-02-06T13:15:56.033Z,9.72
2023-02-06T13:17:07.976Z,9.38
2023-02-06T13:18:59.478Z,9.30
2023-02-06T13:20:09.051Z,9.26
2023-02-06T13:21:17.245Z,9.36
2023-02-06T13:22:47.270Z,9.76
2023-02-06T13:23:52.722Z,9.89
2023-02-06T13:24:59.819Z,9.88
2023-02-06T13:26:04.141Z,9.88
2023-02-06T13:27:14.720Z,9.47
2023-02-06T13:28:48.014Z,9.60
2023-02-06T13:29:53.968Z,9.58
2023-02-06T13:31:01.738Z,9.77
2023-02-06T13:32:41.140Z,9.48
2023-02-06T13:33:49.642Z,9.61
2023-02-06T13:34:57.593Z,9.34
2023-02-06T13:36:06.639Z,9.42
2023-02-06T13:37:22.194Z,9.57
2023-02-06T13:38:42.541Z,9.47
2023-02-06T13:39:48.789Z,9.34
2023-02-06T13:41:19.337Z,9.15
2023-02-06T13:42:35.961Z,9.21
2023-02-06T13:43:39.325Z,9.34
2023-02-06T13:44:42.950Z,9.48
2023-02-06T13:45:51.863Z,9.57
2023-02-06T13:47:25.466Z,9.49
2023-02-06T13:48:51.906Z,9.50
2023-02-06T13:50:34.152Z,9.81
2023-02-06T13:51:58.254Z,9.87
2023-02-06T13:53:25.072Z,9.84
2023-02-06T13:54:57.261Z,9.78
2023-02-06T13:56:15.783Z,9.72
2023-02-06T13:57:36.117Z,9.40
2023-02-06T13:58:46.638Z,9.64
2023-02-06T13:59:53.745Z,9.72
2023-02-06T14:01:00.252Z,9.58
2023-02-06T14:02:12.742Z,9.53
2023-02-06T14:03:24.259Z,9.39
2023-02-06T14:04:31.493Z,9.17
2023-02-06T14:05:46.281Z,9.15
2023-02-06T14:07:11.510Z,9.12
2023-02-06T14:08:25.911Z,8.99
2023-02-06T14:09:41.309Z,8.98
2023-02-06T14:11:14.009Z,8.98
2023-02-06T14:12:34.173Z,9.01
2023-02-06T14:14:14.832Z,9.41
2023-02-06T14:15:28.253Z,9.87
2023-02-06T14:16:43.606Z,10.45
2023-02-06T14:18:02.792Z,10.20
2023-02-06T14:19:14.177Z,10.48
2023-02-06T14:20:30.162Z,10.66
2023-02-06T14:21:45.923Z,10.52
2023-02-06T14:22:59.277Z,10.24
2023-02-06T14:24:30.702Z,10.44
2023-02-06T14:25:53.806Z,10.86
2023-02-06T14:27:14.378Z,11.83
2023-02-06T14:28:28.078Z,12.30
2023-02-06T14:29:41.974Z,11.68
2023-02-06T14:30:54.278Z,11.34
2023-02-06T14:32:15.283Z,10.56
2023-02-06T14:33:34.884Z,10.56
2023-02-06T14:34:53.904Z,10.33
2023-02-06T14:36:09.542Z,10.22
2023-02-06T14:37:39.794Z,10.09
2023-02-06T14:39:31.338Z,9.69
2023-02-06T14:40:39.909Z,9.64
2023-02-06T14:41:44.111Z,9.39
2023-02-06T14:42:49.024Z,8.98
2023-02-06T14:43:52.433Z,9.01
2023-02-06T14:45:02.713Z,9.64
2023-02-06T14:46:11.561Z,9.93
2023-02-06T14:47:19.247Z,10.01
2023-02-06T14:48:27.388Z,10.12
2023-02-06T14:49:32.984Z,10.15
2023-02-06T14:50:40.627Z,10.15
2023-02-06T14:51:44.881Z,10.43
2023-02-06T14:52:51.916Z,10.76
2023-02-06T14:53:58.994Z,10.95
2023-02-06T14:55:30.229Z,10.53
2023-02-06T14:56:36.724Z,10.52
2023-02-06T14:57:46.954Z,9.87
2023-02-06T14:58:51.573Z,9.85
2023-02-06T14:59:58.237Z,9.90
2023-02-06T15:01:16.306Z,9.56
2023-02-06T15:02:28.270Z,9.38